createdAt,value
2023-01-01T00:02:25.227Z,42.50
2023-01-01T00:04:52.172Z,42.60
2023-01-01T00:07:19.123Z,42.60
2023-01-01T00:10:24.750Z,42.70
2023-01-01T00:12:51.609Z,43.40
2023-01-01T00:15:18.453Z,42.80
2023-01-01T00:17:45.396Z,42.80
2023-01-01T00:20:13.089Z,42.80
2023-01-01T00:22:56.590Z,42.90
2023-01-01T00:25:24.427Z,42.90
2023-01-01T00:27:51.560Z,42.90
2023-01-01T00:30:18.437Z,42.90
2023-01-01T00:32:54.562Z,42.90
2023-01-01T00:35:26.658Z,42.90
2023-01-01T00:37:54.586Z,42.80
2023-01-01T00:40:21.689Z,42.80
2023-01-01T00:42:48.449Z,42.80
2023-01-01T00:45:20.984Z,42.70
2023-01-01T00:47:53.151Z,42.70
2023-01-01T00:50:21.402Z,42.70
2023-01-01T00:52:49.184Z,42.70
2023-01-01T00:55:16.410Z,42.60
2023-01-01T00:57:43.190Z,42.70
2023-01-01T01:00:10.790Z,42.60
2023-01-01T01:02:37.690Z,42.60
2023-01-01T01:05:05.010Z,42.60
2023-01-01T01:07:36.910Z,42.50
2023-01-01T01:10:04.659Z,42.50
2023-01-01T01:12:33.134Z,42.50
2023-01-01T01:14:59.913Z,42.50
2023-01-01T01:17:26.784Z,42.40
2023-01-01T01:19:53.604Z,42.40
2023-01-01T01:22:25.978Z,42.40
2023-01-01T01:24:55.340Z,42.40
2023-01-01T01:27:22.107Z,42.30
2023-01-01T01:29:48.887Z,42.30
2023-01-01T01:32:15.651Z,42.30
2023-01-01T01:34:42.449Z,42.20
2023-01-01T01:37:09.205Z,42.20
2023-01-01T01:39:36.240Z,42.20
2023-01-01T01:42:03.745Z,42.20
2023-01-01T01:44:54.248Z,42.20
2023-01-01T01:47:24.165Z,42.10
2023-01-01T01:50:05.814Z,42.10
2023-01-01T01:52:35.992Z,42.10
2023-01-01T01:55:05.669Z,42.10
2023-01-01T01:57:33.172Z,42.10
2023-01-01T02:00:06.744Z,42.20
2023-01-01T02:03:08.062Z,42.20
2023-01-01T02:05:35.873Z,42.30
2023-01-01T02:08:05.217Z,42.40
2023-01-01T02:10:32.643Z,42.30
2023-01-01T02:12:59.672Z,42.40
2023-01-01T02:15:34.664Z,42.40
2023-01-01T02:18:02.511Z,42.40
2023-01-01T02:20:59.524Z,42.40
2023-01-01T02:23:41.382Z,43.20
2023-01-01T02:26:21.064Z,42.40
2023-01-01T02:29:04.964Z,42.40
2023-01-01T02:31:37.155Z,42.50
2023-01-01T02:34:09.025Z,42.60
2023-01-01T02:36:42.170Z,43.40
2023-01-01T02:39:10.521Z,42.80
2023-01-01T02:41:41.788Z,42.90
2023-01-01T02:44:08.632Z,43.00
2023-01-01T02:46:36.372Z,43.00
2023-01-01T02:49:09.830Z,43.10
2023-01-01T02:51:54.700Z,43.20
2023-01-01T02:54:35.277Z,43.10
2023-01-01T02:57:29.199Z,43.10
2023-01-01T03:00:19.306Z,43.10
2023-01-01T03:03:14.928Z,43.20
2023-01-01T03:06:25.212Z,43.20
2023-01-01T03:09:15.123Z,43.10
2023-01-01T03:11:59.902Z,43.10
2023-01-01T03:14:47.781Z,43.10
2023-01-01T03:17:35.987Z,43.10
2023-01-01T03:20:06.081Z,43.10
2023-01-01T03:25:14.629Z,43.00
2023-01-01T03:27:50.089Z,43.00
2023-01-01T03:30:20.080Z,43.00
2023-01-01T03:33:01.013Z,42.90
2023-01-01T03:35:51.403Z,42.90
2023-01-01T03:38:30.885Z,42.90
2023-01-01T03:41:04.752Z,42.90
2023-01-01T03:43:49.541Z,42.80
2023-01-01T03:46:21.249Z,42.80
2023-01-01T03:49:03.751Z,42.80
2023-01-01T03:51:55.929Z,42.80
2023-01-01T03:54:59.682Z,42.80
2023-01-01T03:57:51.920Z,42.70
2023-01-01T04:00:22.320Z,42.70
2023-01-01T04:03:22.272Z,42.70
2023-01-01T04:05:49.172Z,42.60
2023-01-01T04:08:16.840Z,42.60
2023-01-01T04:10:49.424Z,42.60
2023-01-01T04:13:16.227Z,42.70
2023-01-01T04:15:43.206Z,42.50
2023-01-01T04:18:09.992Z,42.50
2023-01-01T04:20:36.827Z,42.50
2023-01-01T04:23:04.137Z,42.50
2023-01-01T04:25:31.547Z,42.60
2023-01-01T04:27:59.257Z,42.60
2023-01-01T04:30:26.944Z,42.50
2023-01-01T04:32:54.881Z,42.60
2023-01-01T04:35:22.011Z,42.50
2023-01-01T04:37:48.771Z,42.50
2023-01-01T04:40:15.565Z,42.50
2023-01-01T04:42:43.346Z,43.20
2023-01-01T04:45:12.355Z,42.40
2023-01-01T04:47:39.208Z,42.50
2023-01-01T04:50:06.513Z,42.50
2023-01-01T04:52:33.563Z,42.60
2023-01-01T04:55:00.313Z,42.70
2023-01-01T04:57:30.132Z,42.70
2023-01-01T04:59:57.032Z,42.70
2023-01-01T05:02:23.990Z,42.70
2023-01-01T05:04:51.047Z,42.70
2023-01-01T05:07:17.896Z,42.60
2023-01-01T05:09:44.648Z,42.50
2023-01-01T05:12:11.390Z,42.40
2023-01-01T05:14:38.178Z,42.40
2023-01-01T05:17:05.075Z,42.40
2023-01-01T05:19:31.851Z,42.30
2023-01-01T05:21:58.647Z,42.30
2023-01-01T05:24:25.423Z,42.20
2023-01-01T05:26:53.166Z,42.10
2023-01-01T05:29:20.018Z,42.00
2023-01-01T05:31:46.952Z,41.80
2023-01-01T05:34:14.075Z,41.70
2023-01-01T05:36:40.973Z,41.60
2023-01-01T05:39:10.243Z,41.60
2023-01-01T05:41:37.163Z,41.50
2023-01-01T05:44:06.147Z,41.50
2023-01-01T05:46:33.488Z,41.50
2023-01-01T05:49:00.706Z,41.40
2023-01-01T05:51:29.660Z,41.40
2023-01-01T05:53:57.422Z,41.40
2023-01-01T05:56:24.392Z,41.40
2023-01-01T05:58:51.147Z,41.30
2023-01-01T06:01:29.651Z,41.20
2023-01-01T06:03:57.903Z,41.00
2023-01-01T06:06:30.281Z,40.90
2023-01-01T06:08:59.523Z,40.90
2023-01-01T06:11:26.833Z,40.70
2023-01-01T06:13:55.460Z,40.60
2023-01-01T06:16:22.364Z,40.60
2023-01-01T06:18:49.826Z,40.50
2023-01-01T06:21:19.041Z,40.40
2023-01-01T06:23:46.564Z,40.40
2023-01-01T06:26:21.953Z,40.30
2023-01-01T06:28:49.372Z,40.40
2023-01-01T06:31:18.330Z,40.40
2023-01-01T06:33:46.014Z,40.40
2023-01-01T06:36:15.297Z,40.40
2023-01-01T06:38:44.694Z,40.50
2023-01-01T06:41:16.955Z,40.50
2023-01-01T06:43:44.050Z,40.50
2023-01-01T06:46:16.467Z,40.50
2023-01-01T06:48:43.782Z,40.40
2023-01-01T06:51:14.933Z,40.40
2023-01-01T06:53:41.778Z,40.20
2023-01-01T06:56:09.382Z,40.20
2023-01-01T06:58:36.375Z,40.10
2023-01-01T07:01:15.355Z,40.00
2023-01-01T07:03:43.398Z,40.00
2023-01-01T07:06:10.706Z,39.90
2023-01-01T07:08:37.633Z,39.90
2023-01-01T07:11:04.694Z,39.80
2023-01-01T07:13:32.034Z,39.80
2023-01-01T07:15:58.875Z,39.90
2023-01-01T07:18:26.128Z,39.90
2023-01-01T07:20:55.291Z,39.90
2023-01-01T07:23:22.144Z,40.00
2023-01-01T07:25:50.118Z,40.00
2023-01-01T07:28:17.182Z,40.00
2023-01-01T07:30:44.322Z,40.00
2023-01-01T07:33:13.681Z,40.00
2023-01-01T07:35:41.192Z,40.00
2023-01-01T07:38:08.303Z,40.00
2023-01-01T07:40:35.055Z,39.90
2023-01-01T07:43:02.115Z,40.00
2023-01-01T07:45:29.081Z,39.90
2023-01-01T07:47:57.411Z,39.90
2023-01-01T07:50:26.214Z,39.90
2023-01-01T07:52:53.008Z,39.80
2023-01-01T07:55:20.894Z,39.80
2023-01-01T07:57:48.430Z,39.80
2023-01-01T08:00:18.666Z,39.80
2023-01-01T08:02:45.778Z,39.80
2023-01-01T08:05:12.743Z,39.90
2023-01-01T08:07:39.548Z,39.90
2023-01-01T08:10:07.354Z,39.90
2023-01-01T08:12:34.406Z,40.00
2023-01-01T08:15:01.171Z,39.90
2023-01-01T08:17:27.959Z,39.90
2023-01-01T08:19:54.722Z,39.90
2023-01-01T08:22:21.474Z,40.00
2023-01-01T08:24:48.217Z,39.90
2023-01-01T08:27:16.418Z,39.90
2023-01-01T08:29:44.527Z,39.90
2023-01-01T08:32:12.220Z,39.80
2023-01-01T08:34:39.025Z,39.80
2023-01-01T08:37:06.477Z,39.80
2023-01-01T08:39:33.213Z,39.80
2023-01-01T08:41:59.990Z,39.80
2023-01-01T08:44:26.713Z,39.80
2023-01-01T08:46:53.766Z,39.80
2023-01-01T08:49:20.623Z,39.90
2023-01-01T08:51:47.398Z,40.00
2023-01-01T08:54:14.131Z,40.10
2023-01-01T08:56:40.878Z,40.10
2023-01-01T08:59:07.605Z,40.10
2023-01-01T09:01:34.449Z,40.10
2023-01-01T09:04:01.318Z,40.00
2023-01-01T09:06:28.185Z,39.90
2023-01-01T09:08:54.965Z,39.80
2023-01-01T09:11:25.187Z,39.80
2023-01-01T09:13:52.761Z,39.80
2023-01-01T09:16:20.495Z,39.80
2023-01-01T09:18:47.249Z,39.80
2023-01-01T09:21:13.992Z,39.90
2023-01-01T09:23:41.326Z,39.90
2023-01-01T09:26:09.702Z,40.00
2023-01-01T09:28:38.071Z,40.00
2023-01-01T09:31:06.487Z,40.10
2023-01-01T09:33:34.060Z,40.10
2023-01-01T09:36:33.742Z,40.20
2023-01-01T09:39:02.595Z,40.40
2023-01-01T09:41:42.101Z,40.40
2023-01-01T09:44:21.356Z,40.50
2023-01-01T09:46:48.930Z,40.50
2023-01-01T09:49:24.121Z,40.60
2023-01-01T09:51:58.364Z,40.50
2023-01-01T09:54:48.362Z,40.50
2023-01-01T09:57:20.004Z,40.50
2023-01-01T09:59:47.378Z,40.50
2023-01-01T10:02:19.890Z,40.50
2023-01-01T10:04:49.629Z,40.50
2023-01-01T10:07:34.613Z,40.40
2023-01-01T10:10:10.245Z,40.50
2023-01-01T10:12:47.966Z,40.40
2023-01-01T10:15:14.698Z,40.50
2023-01-01T10:17:46.349Z,40.50
2023-01-01T10:20:27.738Z,40.50
2023-01-01T10:23:03.416Z,40.60
2023-01-01T10:25:33.910Z,40.60
2023-01-01T10:28:10.638Z,40.70
2023-01-01T10:30:37.613Z,40.70
2023-01-01T10:33:11.333Z,40.60
2023-01-01T10:35:47.231Z,40.60
2023-01-01T10:38:25.490Z,41.20
2023-01-01T10:40:56.412Z,40.50
2023-01-01T10:43:23.193Z,40.50
2023-01-01T10:45:53.956Z,40.40
2023-01-01T10:48:25.601Z,40.40
2023-01-01T10:51:04.275Z,40.40
2023-01-01T10:53:32.602Z,40.40
2023-01-01T10:56:01.122Z,40.40
2023-01-01T10:58:34.170Z,40.50
2023-01-01T11:01:02.972Z,40.60
2023-01-01T11:03:29.958Z,40.60
2023-01-01T11:06:32.068Z,40.60
2023-01-01T11:09:03.393Z,40.60
2023-01-01T11:11:43.782Z,40.60
2023-01-01T11:14:21.544Z,40.40
2023-01-01T11:16:49.673Z,40.40
2023-01-01T11:19:30.686Z,40.40
2023-01-01T11:21:57.963Z,40.40
2023-01-01T11:24:30.329Z,40.40
2023-01-01T11:27:13.807Z,40.40
2023-01-01T11:29:40.615Z,40.50
2023-01-01T11:32:08.748Z,40.60
2023-01-01T11:34:38.004Z,40.80
2023-01-01T11:37:09.418Z,40.80
2023-01-01T11:39:37.469Z,40.80
2023-01-01T11:42:05.494Z,40.90
2023-01-01T11:44:37.652Z,41.00
2023-01-01T11:47:06.389Z,41.00
2023-01-01T11:49:34.205Z,41.20
2023-01-01T11:52:01.143Z,41.20
2023-01-01T11:54:37.275Z,41.30
2023-01-01T11:57:16.144Z,41.30
2023-01-01T11:59:50.893Z,41.40
2023-01-01T12:02:29.180Z,41.50
2023-01-01T12:05:08.406Z,41.40
2023-01-01T12:07:38.784Z,41.50
2023-01-01T12:10:15.930Z,41.60
2023-01-01T12:13:16.780Z,41.60
2023-01-01T12:15:51.700Z,41.60
2023-01-01T12:18:28.482Z,41.60
2023-01-01T12:21:15.254Z,41.70
2023-01-01T12:23:42.243Z,41.60
2023-01-01T12:26:08.965Z,41.50
2023-01-01T12:29:13.192Z,41.40
2023-01-01T12:32:06.189Z,41.20
2023-01-01T12:34:36.355Z,41.10
2023-01-01T12:37:55.501Z,41.00
2023-01-01T12:40:28.516Z,40.80
2023-01-01T12:42:58.104Z,40.70
2023-01-01T12:45:33.872Z,40.70
2023-01-01T12:48:19.323Z,40.60
2023-01-01T12:51:05.173Z,40.50
2023-01-01T12:54:07.427Z,40.50
2023-01-01T12:56:52.390Z,40.60
2023-01-01T12:59:47.952Z,40.70
2023-01-01T13:02:24.202Z,40.80
2023-01-01T13:04:56.364Z,40.90
2023-01-01T13:07:35.583Z,41.00
2023-01-01T13:10:20.968Z,41.10
2023-01-01T13:12:49.382Z,41.10
2023-01-01T13:15:34.761Z,41.30
2023-01-01T13:18:05.413Z,41.40
2023-01-01T13:20:35.497Z,41.40
2023-01-01T13:23:02.416Z,41.40
2023-01-01T13:25:29.357Z,41.50
2023-01-01T13:28:00.294Z,41.60
2023-01-01T13:30:37.015Z,41.70
2023-01-01T13:33:32.423Z,41.80
2023-01-01T13:36:11.961Z,41.80
2023-01-01T13:38:50.701Z,41.90
2023-01-01T13:41:26.669Z,42.00
2023-01-01T13:43:59.470Z,42.00
2023-01-01T13:46:52.166Z,42.00
2023-01-01T13:49:29.319Z,42.10
2023-01-01T13:52:15.330Z,42.20
2023-01-01T13:54:51.115Z,42.20
2023-01-01T13:57:35.564Z,42.10
2023-01-01T14:00:24.711Z,42.10
2023-01-01T14:02:59.548Z,42.10
2023-01-01T14:05:32.585Z,42.10
2023-01-01T14:08:00.004Z,42.10
2023-01-01T14:10:30.697Z,42.10
2023-01-01T14:13:16.711Z,42.00
2023-01-01T14:15:52.632Z,42.00
2023-01-01T14:18:21.990Z,42.00
2023-01-01T14:20:53.372Z,42.00
2023-01-01T14:23:40.227Z,41.90
2023-01-01T14:26:13.391Z,41.90
2023-01-01T14:28:41.413Z,41.90
2023-01-01T14:31:17.838Z,41.80
2023-01-01T14:33:45.730Z,41.80
2023-01-01T14:36:24.361Z,41.80
2023-01-01T14:38:53.989Z,41.70
2023-01-01T14:41:29.554Z,41.70
2023-01-01T14:44:06.321Z,41.70
2023-01-01T14:46:34.045Z,41.60
2023-01-01T14:49:08.579Z,41.60
2023-01-01T14:51:40.911Z,41.60
2023-01-01T14:54:18.511Z,41.60
2023-01-01T14:56:48.132Z,41.60
2023-01-01T14:59:30.745Z,41.40
2023-01-01T15:02:24.088Z,41.50
2023-01-01T15:04:51.755Z,41.50
2023-01-01T15:07:30.507Z,41.70
2023-01-01T15:10:05.255Z,41.80
2023-01-01T15:12:34.594Z,41.90
2023-01-01T15:15:02.015Z,41.90
2023-01-01T15:17:44.178Z,42.00
2023-01-01T15:20:23.492Z,42.00
2023-01-01T15:22:52.189Z,42.10
2023-01-01T15:25:20.517Z,42.20
2023-01-01T15:27:54.294Z,42.30
2023-01-01T15:30:25.690Z,42.30
2023-01-01T15:32:53.391Z,42.40
2023-01-01T15:35:34.003Z,42.40
2023-01-01T15:38:30.956Z,42.50
2023-01-01T15:40:57.892Z,42.50
2023-01-01T15:43:29.544Z,42.40
2023-01-01T15:46:11.389Z,42.40
2023-01-01T15:48:48.324Z,42.40
2023-01-01T15:51:27.131Z,42.40
2023-01-01T15:54:00.180Z,42.30
2023-01-01T15:56:32.304Z,42.20
2023-01-01T15:59:09.430Z,42.20
2023-01-01T16:01:39.688Z,42.10
2023-01-01T16:04:17.646Z,42.10
2023-01-01T16:06:49.235Z,42.10
2023-01-01T16:09:17.341Z,42.00
2023-01-01T16:11:44.794Z,42.00
2023-01-01T16:14:12.197Z,41.90
2023-01-01T16:16:40.445Z,41.90
2023-01-01T16:19:15.703Z,42.00
2023-01-01T16:21:42.485Z,42.00
2023-01-01T16:24:17.798Z,42.00
2023-01-01T16:26:45.464Z,42.00
2023-01-01T16:29:12.528Z,42.00
2023-01-01T16:31:40.237Z,42.00
2023-01-01T16:34:07.429Z,42.00
2023-01-01T16:36:34.498Z,42.00
2023-01-01T16:39:01.466Z,41.90
2023-01-01T16:41:30.176Z,41.80
2023-01-01T16:43:57.882Z,41.80
2023-01-01T16:46:26.522Z,41.80
2023-01-01T16:48:53.818Z,41.70
2023-01-01T16:51:28.063Z,41.70
2023-01-01T16:53:55.351Z,41.70
2023-01-01T16:56:22.173Z,41.60
2023-01-01T16:58:51.535Z,41.60
2023-01-01T17:01:21.771Z,41.60
2023-01-01T17:03:49.328Z,41.50
2023-01-01T17:06:16.339Z,41.40
2023-01-01T17:08:43.116Z,41.40
2023-01-01T17:11:14.663Z,41.20
2023-01-01T17:13:43.138Z,41.10
2023-01-01T17:16:12.024Z,40.90
2023-01-01T17:19:13.492Z,40.80
2023-01-01T17:21:26.056Z,40.80
2023-01-01T17:23:53.665Z,40.60
2023-01-01T17:26:22.932Z,40.60
2023-01-01T17:28:56.463Z,40.40
2023-01-01T17:31:28.637Z,40.40
2023-01-01T17:33:56.071Z,40.20
2023-01-01T17:36:23.392Z,40.10
2023-01-01T17:38:50.299Z,40.10
2023-01-01T17:41:17.896Z,40.10
2023-01-01T17:43:47.410Z,40.00
2023-01-01T17:46:19.709Z,39.90
2023-01-01T17:48:47.303Z,39.80
2023-01-01T17:51:15.506Z,39.70
2023-01-01T17:53:42.534Z,39.60
2023-01-01T17:56:13.752Z,39.50
2023-01-01T17:58:42.375Z,39.50
2023-01-01T18:01:21.575Z,39.50
2023-01-01T18:03:50.754Z,39.50
2023-01-01T18:06:17.847Z,39.30
2023-01-01T18:08:44.633Z,39.30
2023-01-01T18:11:11.467Z,39.30
2023-01-01T18:13:38.271Z,39.30
2023-01-01T18:16:08.461Z,39.10
2023-01-01T18:18:39.984Z,38.90
2023-01-01T18:21:14.464Z,38.80
2023-01-01T18:23:41.898Z,38.80
2023-01-01T18:26:10.235Z,38.80
2023-01-01T18:28:37.423Z,38.80
2023-01-01T18:31:23.372Z,38.70
2023-01-01T18:33:50.395Z,38.50
2023-01-01T18:36:21.727Z,38.40
2023-01-01T18:38:55.371Z,38.20
2023-01-01T18:41:50.378Z,38.10
2023-01-01T18:44:22.782Z,38.00
2023-01-01T18:47:06.633Z,37.80
2023-01-01T18:49:37.755Z,37.80
2023-01-01T18:52:07.700Z,37.70
2023-01-01T18:54:35.399Z,37.60
2023-01-01T18:57:19.392Z,37.60
2023-01-01T18:59:48.122Z,37.50
2023-01-01T19:02:55.219Z,37.40
2023-01-01T19:05:27.090Z,37.40
2023-01-01T19:08:17.608Z,37.40
2023-01-01T19:10:48.447Z,37.30
2023-01-01T19:13:29.358Z,37.30
2023-01-01T19:16:05.182Z,37.20
2023-01-01T19:18:33.480Z,37.20
2023-01-01T19:21:21.345Z,37.10
2023-01-01T19:24:00.747Z,37.10
2023-01-01T19:26:41.581Z,37.00
2023-01-01T19:29:19.941Z,37.00
2023-01-01T19:31:55.331Z,37.00
2023-01-01T19:34:23.993Z,37.10
2023-01-01T19:36:51.688Z,37.10
2023-01-01T19:39:21.970Z,37.30
2023-01-01T19:41:48.880Z,37.40
2023-01-01T19:44:21.338Z,37.50
2023-01-01T19:46:51.601Z,37.60
2023-01-01T19:49:18.592Z,37.50
2023-01-01T19:51:45.339Z,37.60
2023-01-01T19:54:12.124Z,37.60
2023-01-01T19:56:39.015Z,37.50
2023-01-01T19:59:05.861Z,37.40
2023-01-01T20:01:32.890Z,37.40
2023-01-01T20:04:00.025Z,37.40
2023-01-01T20:06:27.472Z,37.40
2023-01-01T20:08:54.758Z,37.30
2023-01-01T20:11:22.091Z,37.30
2023-01-01T20:13:48.893Z,37.30
2023-01-01T20:16:15.702Z,37.30
2023-01-01T20:18:42.559Z,37.30
2023-01-01T20:21:28.138Z,37.40
2023-01-01T20:23:55.843Z,37.20
2023-01-01T20:26:25.362Z,37.30
2023-01-01T20:29:10.815Z,37.30
2023-01-01T20:31:39.162Z,37.20
2023-01-01T20:34:05.978Z,37.20
2023-01-01T20:36:51.542Z,37.30
2023-01-01T20:39:18.292Z,37.30
2023-01-01T20:41:45.064Z,37.20
2023-01-01T20:44:14.198Z,37.10
2023-01-01T20:46:42.324Z,37.00
2023-01-01T20:49:09.304Z,36.90
2023-01-01T20:51:36.058Z,36.80
2023-01-01T20:54:03.280Z,36.70
2023-01-01T20:56:30.169Z,36.70
2023-01-01T20:59:01.920Z,36.60
2023-01-01T21:01:31.919Z,36.60
2023-01-01T21:03:59.055Z,36.60
2023-01-01T21:06:26.204Z,36.60
2023-01-01T21:08:53.078Z,37.30
2023-01-01T21:11:20.305Z,36.70
2023-01-01T21:13:47.370Z,36.70
2023-01-01T21:16:22.162Z,36.80
2023-01-01T21:18:49.256Z,36.80
2023-01-01T21:21:41.220Z,36.90
2023-01-01T21:24:26.147Z,36.90
2023-01-01T21:27:18.353Z,36.90
2023-01-01T21:29:48.283Z,36.90
2023-01-01T21:32:44.961Z,36.90
2023-01-01T21:35:21.748Z,36.80
2023-01-01T21:37:59.600Z,36.80
2023-01-01T21:40:59.439Z,36.90
2023-01-01T21:43:41.976Z,36.90
2023-01-01T21:46:08.908Z,36.80
2023-01-01T21:48:49.133Z,36.80
2023-01-01T21:51:21.276Z,36.90
2023-01-01T21:53:48.420Z,36.90
2023-01-01T21:56:30.827Z,36.90
2023-01-01T21:59:26.322Z,37.00
2023-01-01T22:02:06.818Z,36.90
2023-01-01T22:04:42.525Z,36.90
2023-01-01T22:10:25.424Z,36.90
2023-01-01T22:13:00.476Z,36.90
2023-01-01T22:15:34.448Z,37.00
2023-01-01T22:18:25.953Z,37.00
2023-01-01T22:20:53.788Z,37.00
2023-01-01T22:23:39.779Z,37.00
2023-01-01T22:26:20.268Z,37.00
2023-01-01T22:28:51.453Z,37.00
2023-01-01T22:31:23.415Z,37.00
2023-01-01T22:33:52.845Z,37.00
2023-01-01T22:36:27.859Z,37.00
2023-01-01T22:38:57.532Z,37.00
2023-01-01T22:41:24.433Z,36.90
2023-01-01T22:43:56.813Z,36.90
2023-01-01T22:46:36.252Z,36.90
2023-01-01T22:49:23.167Z,36.90
2023-01-01T22:51:54.169Z,36.90
2023-01-01T22:54:21.017Z,36.90
2023-01-01T22:56:47.783Z,36.80
2023-01-01T22:59:14.509Z,36.80
2023-01-01T23:01:41.336Z,36.80
2023-01-01T23:04:08.285Z,36.80
2023-01-01T23:06:35.107Z,36.90
2023-01-01T23:09:01.989Z,36.90
2023-01-01T23:11:29.070Z,36.80
2023-01-01T23:14:14.556Z,36.70
2023-01-01T23:16:41.482Z,36.70
2023-01-01T23:19:08.348Z,36.60
2023-01-01T23:21:36.269Z,36.60
2023-01-01T23:24:06.670Z,36.60
2023-01-01T23:26:34.096Z,36.50
2023-01-01T23:29:02.401Z,36.50
2023-01-01T23:31:30.317Z,37.20
2023-01-01T23:33:57.852Z,36.40
2023-01-01T23:36:26.543Z,36.40
2023-01-01T23:38:54.255Z,36.30
2023-01-01T23:41:22.370Z,36.20
2023-01-01T23:43:49.687Z,36.30
2023-01-01T23:46:16.868Z,36.30
2023-01-01T23:48:45.123Z,36.20
2023-01-01T23:51:13.156Z,36.20
2023-01-01T23:53:39.953Z,36.20
2023-01-01T23:56:06.957Z,36.10
2023-01-01T23:58:33.810Z,36.20
